• Join FlightAware (Why Join?)
  • Login
  • US Flag 
Gobble Gobble! 
12:28PM EST


 

Airport Tracker/Info


-or-


 

Live Flight TrackerFlight Track Log ✈ UAL4604 ✈ 25-Apr-2013 ✈ KIAH - KRIC

Flight Track Log - Related Links

Times and Time Zones

All times are in EDT time to prevent confusion due to time zone crossing. See the UAL4604 flight status page for this flight to view local times or setup timezone preferences in your user account.

Time Position Orientation Groundspeed Altitude Reporting Facility
EDT Latitude Longitude Course Direction KTS MPH feet Rate Location/Type
02:25PM 29.9594 -95.3414 97° East 176 203 700  Level Houston Center
02:26PM 29.9372 -95.2839 114° Southeast 225 259 2,900 2,160 Climbing Houston Center
02:27PM 29.9336 -95.2242 94° East 229 264 4,800 2,460 Climbing Houston Center
02:28PM 29.9080 -94.7622 95° East  Level FlightAware Approximate
02:28PM 29.9250 -95.1286 96° East 269 310 7,700  Level Houston Center
02:29PM 29.8947 -94.6185 97° East  Level FlightAware Approximate
02:29PM 29.9197 -95.0506 94° East 276 318 9,400  Level Houston Center
02:30PM 29.8788 -94.4752 97° East  Level FlightAware Approximate
02:30PM 29.9128 -94.9550 95° East 294 338 11,600  Level Houston Center
02:31PM 29.9050 -94.8483 95° East 326 375 12,600 900 Climbing Houston Center
02:32PM 29.8950 -94.7264 95° East 375 432 13,500 1,260 Climbing Houston Center
02:33PM 29.8844 -94.6003 95° East 394 453 15,300 1,740 Climbing Houston Center
02:34PM 29.8739 -94.4517 95° East 389 448 17,100 1,440 Climbing Houston Center
02:35PM 29.8628 -94.3261 96° East 395 455 18,300 1,200 Climbing Houston Center
02:36PM 29.8586 -94.2011 92° East 392 451 19,700 1,320 Climbing Houston Center
02:37PM 29.8542 -94.0625 92° East 400 460 21,100 1,440 Climbing Houston Center
02:38PM 29.8653 -93.9331 84° East 408 470 22,700 1,500 Climbing Houston Center
02:39PM 29.8778 -93.8056 84° East 405 466 24,200 1,440 Climbing Houston Center
02:40PM 29.8928 -93.6775 82° East 406 467 25,700 1,620 Climbing Houston Center
02:41PM 29.9072 -93.5247 84° East 403 464 27,600 1,500 Climbing Houston Center
02:42PM 29.9208 -93.3989 83° East 401 461 28,800 1,140 Climbing Houston Center
02:43PM 29.9336 -93.2706 83° East 406 467 30,000 1,020 Climbing Houston Center
02:44PM 29.9469 -93.1422 83° East 408 470 31,000 960 Climbing Houston Center
02:45PM 29.9594 -93.0092 84° East 421 484 32,000 960 Climbing Houston Center
02:46PM 29.9753 -92.8503 83° East 419 482 33,000 480 Climbing Houston Center
02:47PM 29.9861 -92.7092 85° East 439 505 33,000 60 Level Houston Center
02:48PM 29.9989 -92.5572 84° East 466 536 33,200 660 Climbing Houston Center
02:49PM 30.0106 -92.4061 85° East 475 547 34,400 840 Climbing Houston Center
02:50PM 30.0233 -92.2572 84° East 471 542 35,000 240 Climbing Houston Center
02:51PM 30.0392 -92.0742 84° East 477 549 35,000  Level Houston Center
02:52PM 30.0475 -91.9158 86° East 493 567 35,000  Level Houston Center
02:54PM 30.0603 -91.7519 85° East 513 590 35,000  Level Houston Center
02:55PM 30.0733 -91.5886 85° East 513 590 35,000  Level Houston Center
02:56PM 30.0847 -91.4244 85° East 513 590 35,000  Level Houston Center
02:57PM 30.0953 -91.2653 86° East 504 580 35,000  Level Houston Center
02:58PM 30.1094 -91.0744 85° East 499 574 35,000  Level Houston Center
02:59PM 30.1233 -90.9150 84° East 500 575 35,000  Level Houston Center
03:00PM 30.1647 -90.7589 73° East 506 582 35,000  Level Houston Center
03:01PM 30.2042 -90.5997 74° East 514 592 35,000  Level Houston Center
03:02PM 30.2414 -90.4414 75° East 513 590 35,000  Level Houston Center
03:04PM 30.3258 -90.0914 74° East 512 589 35,000  Level Houston Center
03:05PM 30.3633 -89.9317 75° East 513 590 35,000  Level Houston Center
03:06PM 30.4039 -89.7606 75° East 514 592 35,000  Level Houston Center
03:07PM 30.4422 -89.5997 75° East 515 593 35,000  Level Houston Center
03:08PM 30.4806 -89.4392 74° East 515 593 35,000  Level Houston Center
03:09PM 30.5161 -89.2814 75° East 508 585 35,000  Level Houston Center
03:11PM 30.5947 -88.9297 75° East 515 593 35,000  Level Houston Center
03:12PM 30.6319 -88.7703 75° East 516 594 35,000  Level Houston Center
03:13PM 30.6672 -88.6103 76° East 514 592 35,000  Level Houston Center
03:14PM 30.7042 -88.4469 75° East 513 590 35,000  Level Houston Center
03:16PM 30.7674 -88.2829 49° Northeast  Level FlightAware Approximate
03:16PM 30.8536 -88.1861 49° Northeast 486 559 35,000  Level Houston Center
03:17PM 30.9603 -88.0439 49° Northeast 487 560 35,000  Level Houston Center
03:18PM 31.0494 -87.9278 48° Northeast 483 556 35,000  Level Houston Center
03:19PM 31.1375 -87.8092 49° Northeast 483 556 35,000  Level Houston Center
03:20PM 31.2342 -87.6800 49° Northeast 484 557 35,000  Level Houston Center
03:21PM 31.3219 -87.5600 49° Northeast 487 560 35,000  Level Houston Center
03:22PM 31.4008 -87.4569 48° Northeast 488 562 35,000  Level Atlanta Center
03:23PM 31.5028 -87.3219 48° Northeast 501 577 35,000  Level Atlanta Center
03:24PM 31.5914 -87.1983 50° Northeast 496 571 35,000  Level Atlanta Center
03:25PM 31.6822 -87.0772 49° Northeast 496 571 35,000  Level Atlanta Center
03:26PM 31.7578 -86.9650 52° Northeast 491 565 35,000  Level Atlanta Center
03:27PM 31.8483 -86.8406 49° Northeast 491 565 35,000  Level Atlanta Center
03:28PM 31.9389 -86.7161 49° Northeast 491 565 35,000  Level Atlanta Center
03:29PM 32.0419 -86.5822 48° Northeast 498 573 35,000  Level Atlanta Center
03:30PM 32.1300 -86.4572 50° Northeast 498 573 35,000  Level Atlanta Center
03:31PM 32.2158 -86.3342 50° Northeast 492 566 35,000  Level Atlanta Center
03:32PM 32.2953 -86.2133 52° Northeast 498 573 35,000  Level Atlanta Center
03:33PM 32.3789 -86.0850 52° Northeast 504 580 35,000  Level Atlanta Center
03:34PM 32.4686 -85.9567 50° Northeast 504 580 35,000  Level Atlanta Center
03:35PM 32.5647 -85.8133 51° Northeast 513 590 35,000  Level Atlanta Center
03:36PM 32.6497 -85.6867 51° Northeast 502 578 35,000  Level Atlanta Center
03:37PM 32.7350 -85.5550 52° Northeast 502 578 35,000  Level Atlanta Center
03:38PM 32.8200 -85.4281 51° Northeast 502 578 35,000  Level Atlanta Center
03:39PM 32.9050 -85.2981 52° Northeast 497 572 35,000  Level Atlanta Center
03:40PM 32.9897 -85.1731 51° Northeast 497 572 35,000  Level Atlanta Center
03:41PM 33.0742 -85.0453 52° Northeast 486 559 35,000  Level Atlanta Center
03:42PM 33.1586 -84.9172 52° Northeast 486 559 35,000  Level Atlanta Center
03:43PM 33.2431 -84.7864 52° Northeast 486 559 35,000  Level Atlanta Center
03:44PM 33.3294 -84.6531 52° Northeast 496 571 35,000  Level Atlanta Center
03:45PM 33.4114 -84.5242 53° Northeast 491 565 35,000  Level Atlanta Center
03:46PM 33.4972 -84.3925 52° Northeast 496 571 35,000  Level Atlanta Center
03:47PM 33.5833 -84.2583 52° Northeast 496 571 35,000  Level Atlanta Center
03:48PM 33.6669 -84.1236 53° Northeast 502 578 35,000  Level Atlanta Center
03:49PM 33.7544 -83.9939 51° Northeast 504 580 35,000  Level Atlanta Center
03:50PM 33.8297 -83.8736 53° Northeast 504 580 35,000  Level Atlanta Center
03:51PM 33.9150 -83.7408 52° Northeast 504 580 35,000  Level Atlanta Center
03:52PM 34.0000 -83.6028 53° Northeast 512 589 35,000  Level Atlanta Center
03:53PM 34.0872 -83.4694 52° Northeast 512 589 35,000  Level Atlanta Center
03:54PM 34.1742 -83.3308 53° Northeast 512 589 35,000  Level Atlanta Center
03:55PM 34.2650 -83.1817 54° Northeast 500 575 35,000  Level Atlanta Center
03:56PM 34.3475 -83.0500 53° Northeast 512 589 35,000  Level Atlanta Center
03:57PM 34.4339 -82.9131 53° Northeast 512 589 35,000  Level Atlanta Center
03:58PM 34.5244 -82.7606 54° Northeast 512 589 35,000  Level Atlanta Center
03:59PM 34.6125 -82.6203 53° Northeast 512 589 35,000  Level Atlanta Center
04:00PM 34.6964 -82.4825 53° Northeast 512 589 35,000  Level Atlanta Center
04:01PM 34.7844 -82.3444 52° Northeast 512 589 35,000  Level Atlanta Center
04:02PM 34.8678 -82.1983 55° Northeast 512 589 35,000  Level Atlanta Center
04:03PM 34.9556 -82.0672 51° Northeast 505 581 35,000  Level Atlanta Center
04:04PM 35.0386 -81.9256 54° Northeast 505 581 35,000  Level Atlanta Center
04:06PM 35.1044 -81.7748 58° Northeast  Level FlightAware Approximate
04:06PM 35.1778 -81.6578 58° Northeast 500 575 35,000  Level Atlanta Center
04:07PM 35.2522 -81.5158 57° Northeast 491 565 35,000  Level Atlanta Center
04:08PM 35.3303 -81.3683 57° Northeast 496 571 35,000  Level Atlanta Center
04:09PM 35.4064 -81.2206 58° Northeast 507 583 35,000  Level Atlanta Center
04:10PM 35.4819 -81.0700 58° Northeast 507 583 35,000  Level Atlanta Center
04:11PM 35.5619 -80.9217 56° Northeast 513 590 35,000  Level Atlanta Center
04:12PM 35.6372 -80.7756 58° Northeast 513 590 35,000 -480 Level Atlanta Center
04:13PM 35.7125 -80.6294 58° Northeast 508 585 34,100 -1,200 Descending Atlanta Center
04:14PM 35.7878 -80.4803 58° Northeast 508 585 32,600 -1,560 Descending Atlanta Center
04:15PM 35.8625 -80.3311 58° Northeast 508 585 31,000 -1,680 Descending Atlanta Center
04:16PM 35.9492 -80.1631 57° Northeast 519 597 29,300 -780 Descending Atlanta Center
04:18PM 36.0933 -79.8975 56° Northeast 510 587 29,000 -120 Descending Washington Center
04:19PM 36.1689 -79.7628 55° Northeast 520 598 29,000  Level Washington Center
04:20PM 36.2622 -79.5953 55° Northeast 526 605 29,000 -600 Level Washington Center
04:21PM 36.3486 -79.4447 55° Northeast 526 605 27,800 -1,800 Descending Washington Center
04:22PM 36.4172 -79.3167 56° Northeast 521 600 25,500 -2,400 Descending Washington Center
04:23PM 36.4925 -79.1806 55° Northeast 496 571 23,100 -2,700 Descending Washington Center
04:24PM 36.5736 -79.0422 54° Northeast 468 539 20,200 -2,160 Descending Washington Center
04:25PM 36.6461 -78.9133 55° Northeast 456 525 18,800 -1,140 Descending Washington Center
04:26PM 36.7167 -78.7789 57° Northeast 462 532 18,000 -600 Descending Washington Center
04:27PM 36.7692 -78.6825 56° Northeast 421 484 17,600 -600 Descending Washington Center
04:28PM 36.8283 -78.5761 55° Northeast 389 448 16,800 -1,140 Descending Washington Center
04:29PM 36.8850 -78.4717 56° Northeast 372 428 15,400 -1,860 Descending Washington Center
04:30PM 36.9461 -78.3622 55° Northeast 357 411 13,100 -1,800 Descending Washington Center
04:31PM 36.9983 -78.2653 56° Northeast 345 397 11,900 -1,200 Descending Washington Center
04:32PM 37.0503 -78.1761 54° Northeast 324 373 10,700 -960 Descending Washington Center
04:33PM 37.0897 -78.0914 60° Northeast 319 367 10,000 -360 Descending Washington Center
04:34PM 37.1394 -78.0019 55° Northeast 319 367 10,000  Level Washington Center
04:35PM 37.1850 -77.9147 57° Northeast 314 361 10,000 -360 Level Washington Center
04:36PM 37.2325 -77.8300 55° Northeast 308 354 9,300 -600 Descending Washington Center
04:37PM 37.2717 -77.7425 61° Northeast 277 319 8,900 -720 Descending Washington Center
04:38PM 37.2733 -77.6511 89° East 250 288 7,900 -1,020 Descending Washington Center
04:39PM 37.2664 -77.5647 96° East 250 288 6,900 -960 Descending Washington Center
04:40PM 37.2447 -77.4808 108° East 250 288 6,000 -960 Descending Washington Center
04:41PM 37.2439 -77.4025 91° East 238 274 5,000 -1,020 Descending Washington Center
04:43PM 37.3000 -77.2500 65° Northeast 219 252 2,800 -960 Descending Potomac TRACON
04:44PM 37.3500 -77.2000 38° Northeast 211 243 2,000 -360 Descending Potomac TRACON
04:45PM 37.4000 -77.2333 332° Northwest 207 238 2,100 60 Climbing Potomac TRACON